sensor_id;sensor_type;location;lat;lon;timestamp;P1;durP1;ratioP1;P2;durP2;ratioP2
37303;SDS011;23188;51.188;16.374;2024-03-25T00:02:22;6.80;;;5.40;;
37303;SDS011;23188;51.188;16.374;2024-03-25T00:06:26;6.00;;;4.20;;
37303;SDS011;23188;51.188;16.374;2024-03-25T00:10:29;4.70;;;3.60;;
37303;SDS011;23188;51.188;16.374;2024-03-25T00:14:31;6.20;;;4.60;;
37303;SDS011;23188;51.188;16.374;2024-03-25T00:18:34;4.00;;;3.70;;
37303;SDS011;23188;51.188;16.374;2024-03-25T00:22:37;5.20;;;4.20;;
37303;SDS011;23188;51.188;16.374;2024-03-25T00:26:40;4.00;;;3.50;;
37303;SDS011;23188;51.188;16.374;2024-03-25T00:30:43;6.50;;;5.50;;
37303;SDS011;23188;51.188;16.374;2024-03-25T00:34:45;7.00;;;3.70;;
37303;SDS011;23188;51.188;16.374;2024-03-25T00:38:48;3.90;;;3.50;;
37303;SDS011;23188;51.188;16.374;2024-03-25T00:42:51;5.90;;;3.40;;
37303;SDS011;23188;51.188;16.374;2024-03-25T00:46:54;6.30;;;4.50;;
37303;SDS011;23188;51.188;16.374;2024-03-25T00:50:58;3.40;;;3.10;;
37303;SDS011;23188;51.188;16.374;2024-03-25T00:55:01;3.00;;;2.80;;
37303;SDS011;23188;51.188;16.374;2024-03-25T00:59:04;2.80;;;2.60;;
37303;SDS011;23188;51.188;16.374;2024-03-25T01:03:08;3.40;;;2.60;;
37303;SDS011;23188;51.188;16.374;2024-03-25T01:07:11;3.40;;;2.70;;
37303;SDS011;23188;51.188;16.374;2024-03-25T01:11:13;3.50;;;2.90;;
37303;SDS011;23188;51.188;16.374;2024-03-25T01:15:16;4.00;;;2.70;;
37303;SDS011;23188;51.188;16.374;2024-03-25T01:19:19;6.40;;;4.90;;
37303;SDS011;23188;51.188;16.374;2024-03-25T01:23:23;4.50;;;4.10;;
37303;SDS011;23188;51.188;16.374;2024-03-25T01:27:26;4.30;;;3.70;;
37303;SDS011;23188;51.188;16.374;2024-03-25T01:31:29;6.00;;;4.00;;
37303;SDS011;23188;51.188;16.374;2024-03-25T01:35:31;4.60;;;3.50;;
37303;SDS011;23188;51.188;16.374;2024-03-25T01:39:34;4.70;;;4.10;;
37303;SDS011;23188;51.188;16.374;2024-03-25T01:43:37;3.50;;;3.20;;
37303;SDS011;23188;51.188;16.374;2024-03-25T01:47:40;3.20;;;2.30;;
37303;SDS011;23188;51.188;16.374;2024-03-25T01:51:43;5.20;;;2.20;;
37303;SDS011;23188;51.188;16.374;2024-03-25T01:55:46;2.00;;;1.50;;
37303;SDS011;23188;51.188;16.374;2024-03-25T01:59:51;4.50;;;3.30;;
37303;SDS011;23188;51.188;16.374;2024-03-25T02:03:54;4.60;;;3.00;;
37303;SDS011;23188;51.188;16.374;2024-03-25T02:07:58;5.80;;;3.70;;
37303;SDS011;23188;51.188;16.374;2024-03-25T02:12:01;6.40;;;3.80;;
37303;SDS011;23188;51.188;16.374;2024-03-25T02:16:05;3.20;;;2.00;;
37303;SDS011;23188;51.188;16.374;2024-03-25T02:20:08;2.20;;;2.00;;
37303;SDS011;23188;51.188;16.374;2024-03-25T02:24:11;2.00;;;1.30;;
37303;SDS011;23188;51.188;16.374;2024-03-25T02:28:16;2.20;;;1.80;;
37303;SDS011;23188;51.188;16.374;2024-03-25T02:32:19;4.00;;;1.70;;
37303;SDS011;23188;51.188;16.374;2024-03-25T02:36:22;2.30;;;1.90;;
37303;SDS011;23188;51.188;16.374;2024-03-25T02:40:25;2.40;;;2.20;;
37303;SDS011;23188;51.188;16.374;2024-03-25T02:44:28;1.90;;;1.70;;
37303;SDS011;23188;51.188;16.374;2024-03-25T02:48:33;4.50;;;2.80;;
37303;SDS011;23188;51.188;16.374;2024-03-25T02:52:36;3.40;;;3.10;;
37303;SDS011;23188;51.188;16.374;2024-03-25T02:56:39;3.00;;;2.70;;
37303;SDS011;23188;51.188;16.374;2024-03-25T03:00:42;4.60;;;3.20;;
37303;SDS011;23188;51.188;16.374;2024-03-25T03:04:45;4.80;;;4.10;;
37303;SDS011;23188;51.188;16.374;2024-03-25T03:08:48;3.70;;;2.60;;
37303;SDS011;23188;51.188;16.374;2024-03-25T03:12:51;3.70;;;3.20;;
37303;SDS011;23188;51.188;16.374;2024-03-25T03:16:54;5.30;;;3.80;;
37303;SDS011;23188;51.188;16.374;2024-03-25T03:21:00;5.10;;;4.60;;
37303;SDS011;23188;51.188;16.374;2024-03-25T03:25:03;4.30;;;3.80;;
37303;SDS011;23188;51.188;16.374;2024-03-25T03:29:06;4.70;;;3.90;;
37303;SDS011;23188;51.188;16.374;2024-03-25T03:33:09;3.90;;;3.60;;
37303;SDS011;23188;51.188;16.374;2024-03-25T03:37:11;5.50;;;4.90;;
37303;SDS011;23188;51.188;16.374;2024-03-25T03:41:14;4.10;;;3.80;;
37303;SDS011;23188;51.188;16.374;2024-03-25T03:45:17;5.20;;;4.00;;
37303;SDS011;23188;51.188;16.374;2024-03-25T03:49:20;5.00;;;4.30;;
37303;SDS011;23188;51.188;16.374;2024-03-25T03:53:23;3.70;;;3.40;;
37303;SDS011;23188;51.188;16.374;2024-03-25T03:57:25;4.30;;;3.30;;
37303;SDS011;23188;51.188;16.374;2024-03-25T04:01:28;4.70;;;3.60;;
37303;SDS011;23188;51.188;16.374;2024-03-25T04:05:31;7.40;;;3.70;;
37303;SDS011;23188;51.188;16.374;2024-03-25T04:09:34;4.30;;;3.50;;
37303;SDS011;23188;51.188;16.374;2024-03-25T04:13:36;3.20;;;2.40;;
37303;SDS011;23188;51.188;16.374;2024-03-25T04:17:39;3.70;;;3.30;;
37303;SDS011;23188;51.188;16.374;2024-03-25T04:21:42;3.40;;;3.10;;
37303;SDS011;23188;51.188;16.374;2024-03-25T04:25:45;3.00;;;2.60;;
37303;SDS011;23188;51.188;16.374;2024-03-25T04:29:48;3.00;;;2.70;;
37303;SDS011;23188;51.188;16.374;2024-03-25T04:33:50;3.60;;;2.80;;
37303;SDS011;23188;51.188;16.374;2024-03-25T04:37:53;2.80;;;2.00;;
37303;SDS011;23188;51.188;16.374;2024-03-25T04:41:59;3.10;;;2.60;;
37303;SDS011;23188;51.188;16.374;2024-03-25T04:46:02;2.90;;;1.80;;
37303;SDS011;23188;51.188;16.374;2024-03-25T04:50:06;6.20;;;3.10;;
37303;SDS011;23188;51.188;16.374;2024-03-25T04:54:09;2.50;;;2.10;;
37303;SDS011;23188;51.188;16.374;2024-03-25T04:58:12;2.40;;;1.90;;
37303;SDS011;23188;51.188;16.374;2024-03-25T05:02:15;2.70;;;1.60;;
37303;SDS011;23188;51.188;16.374;2024-03-25T05:06:18;1.60;;;1.20;;
37303;SDS011;23188;51.188;16.374;2024-03-25T05:10:20;1.60;;;1.30;;
37303;SDS011;23188;51.188;16.374;2024-03-25T05:14:23;1.50;;;1.20;;
37303;SDS011;23188;51.188;16.374;2024-03-25T05:18:26;1.70;;;1.10;;
37303;SDS011;23188;51.188;16.374;2024-03-25T05:22:29;2.50;;;1.60;;
37303;SDS011;23188;51.188;16.374;2024-03-25T05:26:31;4.70;;;1.80;;
37303;SDS011;23188;51.188;16.374;2024-03-25T05:30:34;0.80;;;0.80;;
37303;SDS011;23188;51.188;16.374;2024-03-25T05:34:37;0.70;;;0.50;;
37303;SDS011;23188;51.188;16.374;2024-03-25T05:38:40;1.60;;;1.20;;
37303;SDS011;23188;51.188;16.374;2024-03-25T05:42:45;1.80;;;1.40;;
37303;SDS011;23188;51.188;16.374;2024-03-25T05:46:48;1.60;;;0.80;;
37303;SDS011;23188;51.188;16.374;2024-03-25T05:51:01;3.20;;;1.10;;
37303;SDS011;23188;51.188;16.374;2024-03-25T05:55:05;2.50;;;1.90;;
37303;SDS011;23188;51.188;16.374;2024-03-25T05:59:08;2.60;;;1.80;;
37303;SDS011;23188;51.188;16.374;2024-03-25T06:03:10;3.10;;;2.40;;
37303;SDS011;23188;51.188;16.374;2024-03-25T06:07:14;2.60;;;2.20;;
37303;SDS011;23188;51.188;16.374;2024-03-25T06:11:16;3.40;;;2.30;;
37303;SDS011;23188;51.188;16.374;2024-03-25T06:15:20;2.60;;;2.10;;
37303;SDS011;23188;51.188;16.374;2024-03-25T06:19:23;5.70;;;3.90;;
37303;SDS011;23188;51.188;16.374;2024-03-25T06:23:27;3.20;;;2.20;;
37303;SDS011;23188;51.188;16.374;2024-03-25T06:27:33;3.70;;;1.90;;
37303;SDS011;23188;51.188;16.374;2024-03-25T06:31:36;3.30;;;2.60;;
37303;SDS011;23188;51.188;16.374;2024-03-25T06:35:57;3.00;;;2.20;;
37303;SDS011;23188;51.188;16.374;2024-03-25T06:40:00;3.10;;;2.30;;
37303;SDS011;23188;51.188;16.374;2024-03-25T06:44:03;6.40;;;4.10;;
37303;SDS011;23188;51.188;16.374;2024-03-25T06:48:07;2.60;;;2.30;;
37303;SDS011;23188;51.188;16.374;2024-03-25T06:52:10;5.60;;;3.40;;
37303;SDS011;23188;51.188;16.374;2024-03-25T06:56:13;5.60;;;4.60;;
37303;SDS011;23188;51.188;16.374;2024-03-25T07:00:16;6.00;;;3.00;;
37303;SDS011;23188;51.188;16.374;2024-03-25T07:04:19;4.50;;;3.40;;
37303;SDS011;23188;51.188;16.374;2024-03-25T07:08:21;4.30;;;3.50;;
37303;SDS011;23188;51.188;16.374;2024-03-25T07:12:24;2.40;;;2.20;;
37303;SDS011;23188;51.188;16.374;2024-03-25T07:16:27;3.70;;;3.30;;
37303;SDS011;23188;51.188;16.374;2024-03-25T07:20:30;4.30;;;3.50;;
37303;SDS011;23188;51.188;16.374;2024-03-25T07:24:33;3.80;;;2.90;;
37303;SDS011;23188;51.188;16.374;2024-03-25T07:28:36;5.60;;;4.50;;
37303;SDS011;23188;51.188;16.374;2024-03-25T07:32:39;7.10;;;3.50;;
37303;SDS011;23188;51.188;16.374;2024-03-25T07:36:42;2.70;;;2.40;;
37303;SDS011;23188;51.188;16.374;2024-03-25T07:40:45;2.20;;;2.00;;
37303;SDS011;23188;51.188;16.374;2024-03-25T07:44:47;3.60;;;3.00;;
37303;SDS011;23188;51.188;16.374;2024-03-25T07:48:50;2.10;;;1.40;;
37303;SDS011;23188;51.188;16.374;2024-03-25T07:52:54;2.00;;;0.90;;
37303;SDS011;23188;51.188;16.374;2024-03-25T07:56:57;2.20;;;2.00;;
37303;SDS011;23188;51.188;16.374;2024-03-25T08:01:00;1.60;;;1.10;;
37303;SDS011;23188;51.188;16.374;2024-03-25T08:05:02;2.40;;;1.10;;
37303;SDS011;23188;51.188;16.374;2024-03-25T08:09:06;1.80;;;1.70;;
37303;SDS011;23188;51.188;16.374;2024-03-25T08:13:09;3.70;;;2.80;;
37303;SDS011;23188;51.188;16.374;2024-03-25T08:17:13;3.20;;;2.40;;
37303;SDS011;23188;51.188;16.374;2024-03-25T08:21:16;5.90;;;2.90;;
37303;SDS011;23188;51.188;16.374;2024-03-25T08:25:19;3.90;;;2.90;;
37303;SDS011;23188;51.188;16.374;2024-03-25T08:29:22;4.80;;;4.00;;
37303;SDS011;23188;51.188;16.374;2024-03-25T08:33:24;4.70;;;3.90;;
37303;SDS011;23188;51.188;16.374;2024-03-25T08:37:27;5.90;;;3.60;;
37303;SDS011;23188;51.188;16.374;2024-03-25T08:41:30;7.60;;;4.60;;
37303;SDS011;23188;51.188;16.374;2024-03-25T08:45:33;3.70;;;3.10;;
37303;SDS011;23188;51.188;16.374;2024-03-25T08:49:36;5.50;;;4.60;;
37303;SDS011;23188;51.188;16.374;2024-03-25T08:53:39;5.70;;;4.70;;
37303;SDS011;23188;51.188;16.374;2024-03-25T08:57:41;5.40;;;3.40;;
37303;SDS011;23188;51.188;16.374;2024-03-25T09:01:44;4.70;;;4.10;;
37303;SDS011;23188;51.188;16.374;2024-03-25T09:05:47;5.90;;;4.30;;
37303;SDS011;23188;51.188;16.374;2024-03-25T09:09:50;4.50;;;3.20;;
37303;SDS011;23188;51.188;16.374;2024-03-25T09:14:11;3.70;;;3.30;;
37303;SDS011;23188;51.188;16.374;2024-03-25T09:18:14;5.60;;;4.30;;
37303;SDS011;23188;51.188;16.374;2024-03-25T09:22:17;4.70;;;3.60;;
37303;SDS011;23188;51.188;16.374;2024-03-25T09:26:20;5.90;;;3.80;;
37303;SDS011;23188;51.188;16.374;2024-03-25T09:30:23;13.40;;;4.70;;
37303;SDS011;23188;51.188;16.374;2024-03-25T09:34:26;7.40;;;4.10;;
37303;SDS011;23188;51.188;16.374;2024-03-25T09:38:28;4.10;;;3.00;;
37303;SDS011;23188;51.188;16.374;2024-03-25T09:42:36;6.60;;;4.20;;
37303;SDS011;23188;51.188;16.374;2024-03-25T09:46:49;8.70;;;5.40;;
37303;SDS011;23188;51.188;16.374;2024-03-25T09:50:53;7.20;;;5.10;;
37303;SDS011;23188;51.188;16.374;2024-03-25T09:54:56;6.20;;;4.10;;
37303;SDS011;23188;51.188;16.374;2024-03-25T09:58:59;5.00;;;4.50;;
37303;SDS011;23188;51.188;16.374;2024-03-25T10:03:03;5.40;;;3.90;;
37303;SDS011;23188;51.188;16.374;2024-03-25T10:07:06;3.40;;;3.10;;
37303;SDS011;23188;51.188;16.374;2024-03-25T10:11:08;3.90;;;2.60;;
37303;SDS011;23188;51.188;16.374;2024-03-25T10:15:15;5.90;;;3.30;;
37303;SDS011;23188;51.188;16.374;2024-03-25T10:19:21;6.10;;;3.80;;
37303;SDS011;23188;51.188;16.374;2024-03-25T10:23:23;4.20;;;3.80;;
37303;SDS011;23188;51.188;16.374;2024-03-25T10:27:29;7.80;;;5.10;;
37303;SDS011;23188;51.188;16.374;2024-03-25T10:31:32;6.10;;;4.30;;
37303;SDS011;23188;51.188;16.374;2024-03-25T10:35:36;7.00;;;3.90;;
37303;SDS011;23188;51.188;16.374;2024-03-25T10:39:47;7.80;;;5.40;;
37303;SDS011;23188;51.188;16.374;2024-03-25T10:43:51;5.10;;;4.40;;
37303;SDS011;23188;51.188;16.374;2024-03-25T10:48:02;5.20;;;4.10;;
37303;SDS011;23188;51.188;16.374;2024-03-25T10:52:11;7.80;;;6.90;;
37303;SDS011;23188;51.188;16.374;2024-03-25T10:56:15;6.30;;;4.30;;
37303;SDS011;23188;51.188;16.374;2024-03-25T11:00:19;6.20;;;4.10;;
37303;SDS011;23188;51.188;16.374;2024-03-25T11:04:23;7.50;;;5.20;;
37303;SDS011;23188;51.188;16.374;2024-03-25T11:08:31;6.60;;;5.10;;
37303;SDS011;23188;51.188;16.374;2024-03-25T11:12:38;9.00;;;5.60;;
37303;SDS011;23188;51.188;16.374;2024-03-25T11:16:50;9.80;;;7.00;;
37303;SDS011;23188;51.188;16.374;2024-03-25T11:21:03;11.00;;;5.90;;
37303;SDS011;23188;51.188;16.374;2024-03-25T11:25:08;8.50;;;6.70;;
37303;SDS011;23188;51.188;16.374;2024-03-25T11:29:16;9.80;;;7.10;;
37303;SDS011;23188;51.188;16.374;2024-03-25T11:33:19;9.70;;;6.20;;
37303;SDS011;23188;51.188;16.374;2024-03-25T11:37:24;10.50;;;6.70;;
37303;SDS011;23188;51.188;16.374;2024-03-25T11:41:27;10.50;;;5.90;;
37303;SDS011;23188;51.188;16.374;2024-03-25T11:45:31;8.00;;;5.30;;
37303;SDS011;23188;51.188;16.374;2024-03-25T11:49:34;6.90;;;4.50;;
37303;SDS011;23188;51.188;16.374;2024-03-25T11:53:41;6.10;;;3.80;;
37303;SDS011;23188;51.188;16.374;2024-03-25T11:57:44;8.80;;;5.30;;
37303;SDS011;23188;51.188;16.374;2024-03-25T12:01:46;5.50;;;5.00;;
37303;SDS011;23188;51.188;16.374;2024-03-25T12:05:50;7.20;;;6.00;;
37303;SDS011;23188;51.188;16.374;2024-03-25T12:09:54;10.30;;;5.50;;
37303;SDS011;23188;51.188;16.374;2024-03-25T12:14:15;10.20;;;5.00;;
37303;SDS011;23188;51.188;16.374;2024-03-25T12:18:20;12.50;;;4.90;;
37303;SDS011;23188;51.188;16.374;2024-03-25T12:22:24;10.10;;;5.80;;
37303;SDS011;23188;51.188;16.374;2024-03-25T12:26:28;8.00;;;5.10;;
37303;SDS011;23188;51.188;16.374;2024-03-25T12:30:33;8.00;;;5.20;;
37303;SDS011;23188;51.188;16.374;2024-03-25T12:34:42;15.70;;;7.30;;
37303;SDS011;23188;51.188;16.374;2024-03-25T12:38:53;8.30;;;5.60;;
37303;SDS011;23188;51.188;16.374;2024-03-25T12:42:56;7.10;;;5.50;;
37303;SDS011;23188;51.188;16.374;2024-03-25T12:47:00;5.90;;;4.90;;
37303;SDS011;23188;51.188;16.374;2024-03-25T12:51:03;7.30;;;5.30;;
37303;SDS011;23188;51.188;16.374;2024-03-25T12:55:07;5.80;;;4.70;;
37303;SDS011;23188;51.188;16.374;2024-03-25T12:59:10;4.90;;;4.30;;
37303;SDS011;23188;51.188;16.374;2024-03-25T13:03:13;9.80;;;4.40;;
37303;SDS011;23188;51.188;16.374;2024-03-25T13:07:16;6.50;;;3.60;;
37303;SDS011;23188;51.188;16.374;2024-03-25T13:11:19;5.30;;;3.80;;
37303;SDS011;23188;51.188;16.374;2024-03-25T13:15:22;3.20;;;2.90;;
37303;SDS011;23188;51.188;16.374;2024-03-25T13:19:30;30.00;;;13.40;;
37303;SDS011;23188;51.188;16.374;2024-03-25T13:23:33;2.80;;;2.20;;
37303;SDS011;23188;51.188;16.374;2024-03-25T13:27:36;3.50;;;2.10;;
37303;SDS011;23188;51.188;16.374;2024-03-25T13:31:38;2.60;;;2.10;;
37303;SDS011;23188;51.188;16.374;2024-03-25T13:35:41;2.40;;;1.60;;
37303;SDS011;23188;51.188;16.374;2024-03-25T13:39:44;2.60;;;0.90;;
37303;SDS011;23188;51.188;16.374;2024-03-25T13:43:48;4.80;;;2.00;;
37303;SDS011;23188;51.188;16.374;2024-03-25T13:47:51;3.20;;;2.40;;
37303;SDS011;23188;51.188;16.374;2024-03-25T13:51:57;6.60;;;4.50;;
37303;SDS011;23188;51.188;16.374;2024-03-25T13:56:05;7.00;;;3.50;;
37303;SDS011;23188;51.188;16.374;2024-03-25T14:00:08;5.50;;;3.60;;
37303;SDS011;23188;51.188;16.374;2024-03-25T14:04:13;8.20;;;3.00;;
37303;SDS011;23188;51.188;16.374;2024-03-25T14:08:16;4.60;;;3.20;;
37303;SDS011;23188;51.188;16.374;2024-03-25T14:12:18;4.20;;;3.10;;
37303;SDS011;23188;51.188;16.374;2024-03-25T14:16:21;10.40;;;5.30;;
37303;SDS011;23188;51.188;16.374;2024-03-25T14:20:24;6.00;;;3.70;;
37303;SDS011;23188;51.188;16.374;2024-03-25T14:24:27;6.50;;;4.00;;
37303;SDS011;23188;51.188;16.374;2024-03-25T14:28:30;2.80;;;2.50;;
37303;SDS011;23188;51.188;16.374;2024-03-25T14:32:32;3.00;;;1.90;;
37303;SDS011;23188;51.188;16.374;2024-03-25T14:36:35;3.30;;;2.30;;
37303;SDS011;23188;51.188;16.374;2024-03-25T14:40:39;6.00;;;2.50;;
37303;SDS011;23188;51.188;16.374;2024-03-25T14:44:41;3.10;;;1.10;;
37303;SDS011;23188;51.188;16.374;2024-03-25T14:48:44;1.30;;;0.70;;
37303;SDS011;23188;51.188;16.374;2024-03-25T14:52:50;0.70;;;0.70;;
37303;SDS011;23188;51.188;16.374;2024-03-25T14:56:52;2.40;;;1.90;;
37303;SDS011;23188;51.188;16.374;2024-03-25T15:00:56;2.00;;;1.60;;
37303;SDS011;23188;51.188;16.374;2024-03-25T15:04:59;1.30;;;1.20;;
37303;SDS011;23188;51.188;16.374;2024-03-25T15:09:02;1.90;;;1.80;;
37303;SDS011;23188;51.188;16.374;2024-03-25T15:13:06;3.20;;;2.10;;
37303;SDS011;23188;51.188;16.374;2024-03-25T15:17:09;6.90;;;3.60;;
37303;SDS011;23188;51.188;16.374;2024-03-25T15:21:12;5.10;;;3.10;;
37303;SDS011;23188;51.188;16.374;2024-03-25T15:25:15;5.50;;;3.30;;
37303;SDS011;23188;51.188;16.374;2024-03-25T15:29:18;4.30;;;3.80;;
37303;SDS011;23188;51.188;16.374;2024-03-25T15:33:21;5.50;;;4.60;;
37303;SDS011;23188;51.188;16.374;2024-03-25T15:37:24;4.20;;;3.80;;
37303;SDS011;23188;51.188;16.374;2024-03-25T15:41:26;9.20;;;4.90;;
37303;SDS011;23188;51.188;16.374;2024-03-25T15:45:29;4.80;;;4.10;;
37303;SDS011;23188;51.188;16.374;2024-03-25T15:49:33;6.10;;;4.90;;
37303;SDS011;23188;51.188;16.374;2024-03-25T15:53:35;5.90;;;4.80;;
37303;SDS011;23188;51.188;16.374;2024-03-25T15:57:38;10.20;;;5.40;;
37303;SDS011;23188;51.188;16.374;2024-03-25T16:01:41;7.30;;;5.10;;
37303;SDS011;23188;51.188;16.374;2024-03-25T16:05:44;5.90;;;4.40;;
37303;SDS011;23188;51.188;16.374;2024-03-25T16:09:47;8.60;;;5.20;;
37303;SDS011;23188;51.188;16.374;2024-03-25T16:13:50;7.20;;;4.00;;
37303;SDS011;23188;51.188;16.374;2024-03-25T16:17:54;5.90;;;4.60;;
37303;SDS011;23188;51.188;16.374;2024-03-25T16:21:56;24.10;;;12.70;;
37303;SDS011;23188;51.188;16.374;2024-03-25T16:25:59;34.30;;;17.60;;
37303;SDS011;23188;51.188;16.374;2024-03-25T16:30:02;33.00;;;19.60;;
37303;SDS011;23188;51.188;16.374;2024-03-25T16:34:05;20.60;;;14.40;;
37303;SDS011;23188;51.188;16.374;2024-03-25T16:38:08;21.20;;;14.30;;
37303;SDS011;23188;51.188;16.374;2024-03-25T16:42:11;15.30;;;8.80;;
37303;SDS011;23188;51.188;16.374;2024-03-25T16:46:14;10.20;;;7.70;;
37303;SDS011;23188;51.188;16.374;2024-03-25T16:50:17;16.60;;;7.70;;
37303;SDS011;23188;51.188;16.374;2024-03-25T16:54:19;9.30;;;8.10;;
37303;SDS011;23188;51.188;16.374;2024-03-25T16:58:22;17.30;;;8.80;;
37303;SDS011;23188;51.188;16.374;2024-03-25T17:02:25;7.90;;;7.10;;
37303;SDS011;23188;51.188;16.374;2024-03-25T17:06:28;11.30;;;7.10;;
37303;SDS011;23188;51.188;16.374;2024-03-25T17:10:31;9.10;;;4.90;;
37303;SDS011;23188;51.188;16.374;2024-03-25T17:14:34;13.20;;;7.60;;
37303;SDS011;23188;51.188;16.374;2024-03-25T17:18:37;9.40;;;6.70;;
37303;SDS011;23188;51.188;16.374;2024-03-25T17:22:40;8.30;;;6.70;;
37303;SDS011;23188;51.188;16.374;2024-03-25T17:26:42;13.40;;;9.10;;
37303;SDS011;23188;51.188;16.374;2024-03-25T17:30:45;15.40;;;9.30;;
37303;SDS011;23188;51.188;16.374;2024-03-25T17:34:50;13.80;;;9.00;;
37303;SDS011;23188;51.188;16.374;2024-03-25T17:38:52;15.30;;;9.80;;
37303;SDS011;23188;51.188;16.374;2024-03-25T17:42:55;13.60;;;8.70;;
37303;SDS011;23188;51.188;16.374;2024-03-25T17:46:58;14.40;;;9.40;;
37303;SDS011;23188;51.188;16.374;2024-03-25T17:51:01;21.20;;;14.70;;
37303;SDS011;23188;51.188;16.374;2024-03-25T17:55:04;25.40;;;14.40;;
37303;SDS011;23188;51.188;16.374;2024-03-25T17:59:07;17.70;;;12.20;;
37303;SDS011;23188;51.188;16.374;2024-03-25T18:03:10;14.40;;;10.50;;
37303;SDS011;23188;51.188;16.374;2024-03-25T18:07:13;20.80;;;11.90;;
37303;SDS011;23188;51.188;16.374;2024-03-25T18:11:16;56.20;;;36.40;;
37303;SDS011;23188;51.188;16.374;2024-03-25T18:15:19;43.70;;;28.00;;
37303;SDS011;23188;51.188;16.374;2024-03-25T18:19:22;21.00;;;16.20;;
37303;SDS011;23188;51.188;16.374;2024-03-25T18:23:25;25.60;;;18.20;;
37303;SDS011;23188;51.188;16.374;2024-03-25T18:27:28;43.30;;;31.20;;
37303;SDS011;23188;51.188;16.374;2024-03-25T18:31:30;32.60;;;24.20;;
37303;SDS011;23188;51.188;16.374;2024-03-25T18:35:36;26.20;;;20.30;;
37303;SDS011;23188;51.188;16.374;2024-03-25T18:39:42;26.50;;;18.00;;
37303;SDS011;23188;51.188;16.374;2024-03-25T18:43:45;20.50;;;11.90;;
37303;SDS011;23188;51.188;16.374;2024-03-25T18:47:47;25.10;;;15.90;;
37303;SDS011;23188;51.188;16.374;2024-03-25T18:51:50;29.50;;;18.70;;
37303;SDS011;23188;51.188;16.374;2024-03-25T18:55:53;24.70;;;17.60;;
37303;SDS011;23188;51.188;16.374;2024-03-25T18:59:56;24.30;;;16.50;;
37303;SDS011;23188;51.188;16.374;2024-03-25T19:03:59;26.30;;;16.60;;
37303;SDS011;23188;51.188;16.374;2024-03-25T19:08:01;32.40;;;25.40;;
37303;SDS011;23188;51.188;16.374;2024-03-25T19:12:04;33.80;;;21.20;;
37303;SDS011;23188;51.188;16.374;2024-03-25T19:16:07;20.10;;;14.10;;
37303;SDS011;23188;51.188;16.374;2024-03-25T19:20:10;21.90;;;14.80;;
37303;SDS011;23188;51.188;16.374;2024-03-25T19:24:13;55.00;;;29.30;;
37303;SDS011;23188;51.188;16.374;2024-03-25T19:28:16;34.50;;;18.80;;
37303;SDS011;23188;51.188;16.374;2024-03-25T19:32:19;26.10;;;17.40;;
37303;SDS011;23188;51.188;16.374;2024-03-25T19:36:23;26.00;;;16.50;;
37303;SDS011;23188;51.188;16.374;2024-03-25T19:40:25;34.10;;;18.40;;
37303;SDS011;23188;51.188;16.374;2024-03-25T19:44:28;51.50;;;32.10;;
37303;SDS011;23188;51.188;16.374;2024-03-25T19:48:32;55.80;;;31.70;;
37303;SDS011;23188;51.188;16.374;2024-03-25T19:52:35;50.90;;;28.90;;
37303;SDS011;23188;51.188;16.374;2024-03-25T19:56:38;47.50;;;28.60;;
37303;SDS011;23188;51.188;16.374;2024-03-25T20:00:41;65.40;;;36.70;;
37303;SDS011;23188;51.188;16.374;2024-03-25T20:04:43;93.70;;;52.00;;
37303;SDS011;23188;51.188;16.374;2024-03-25T20:08:47;69.30;;;44.90;;
37303;SDS011;23188;51.188;16.374;2024-03-25T20:12:50;68.30;;;43.60;;
37303;SDS011;23188;51.188;16.374;2024-03-25T20:16:53;79.90;;;48.60;;
37303;SDS011;23188;51.188;16.374;2024-03-25T20:20:55;68.90;;;46.10;;
37303;SDS011;23188;51.188;16.374;2024-03-25T20:24:58;84.40;;;49.90;;
37303;SDS011;23188;51.188;16.374;2024-03-25T20:29:01;96.70;;;54.20;;
37303;SDS011;23188;51.188;16.374;2024-03-25T20:33:04;82.90;;;48.30;;
37303;SDS011;23188;51.188;16.374;2024-03-25T20:37:10;63.70;;;43.50;;
37303;SDS011;23188;51.188;16.374;2024-03-25T20:41:13;67.60;;;39.20;;
37303;SDS011;23188;51.188;16.374;2024-03-25T20:45:21;83.20;;;48.20;;
37303;SDS011;23188;51.188;16.374;2024-03-25T20:49:23;72.00;;;43.70;;
37303;SDS011;23188;51.188;16.374;2024-03-25T20:53:26;65.60;;;37.30;;
37303;SDS011;23188;51.188;16.374;2024-03-25T20:57:29;49.50;;;35.60;;
37303;SDS011;23188;51.188;16.374;2024-03-25T21:01:32;71.00;;;41.90;;
37303;SDS011;23188;51.188;16.374;2024-03-25T21:05:34;78.40;;;45.70;;
37303;SDS011;23188;51.188;16.374;2024-03-25T21:09:37;73.50;;;45.40;;
37303;SDS011;23188;51.188;16.374;2024-03-25T21:13:40;59.90;;;39.50;;
37303;SDS011;23188;51.188;16.374;2024-03-25T21:17:43;69.70;;;38.90;;
37303;SDS011;23188;51.188;16.374;2024-03-25T21:21:47;56.70;;;33.70;;
37303;SDS011;23188;51.188;16.374;2024-03-25T21:25:49;62.40;;;34.60;;
37303;SDS011;23188;51.188;16.374;2024-03-25T21:29:52;54.60;;;29.80;;
37303;SDS011;23188;51.188;16.374;2024-03-25T21:33:55;47.00;;;29.40;;
37303;SDS011;23188;51.188;16.374;2024-03-25T21:37:58;75.70;;;36.00;;
37303;SDS011;23188;51.188;16.374;2024-03-25T21:42:00;43.50;;;25.00;;
37303;SDS011;23188;51.188;16.374;2024-03-25T21:46:03;56.10;;;28.70;;
37303;SDS011;23188;51.188;16.374;2024-03-25T21:50:06;53.10;;;32.90;;
37303;SDS011;23188;51.188;16.374;2024-03-25T21:54:09;62.90;;;41.50;;
37303;SDS011;23188;51.188;16.374;2024-03-25T21:58:12;83.10;;;42.90;;
37303;SDS011;23188;51.188;16.374;2024-03-25T22:02:14;74.20;;;41.40;;
37303;SDS011;23188;51.188;16.374;2024-03-25T22:06:18;67.60;;;44.20;;
37303;SDS011;23188;51.188;16.374;2024-03-25T22:10:21;69.20;;;42.10;;
37303;SDS011;23188;51.188;16.374;2024-03-25T22:14:24;76.80;;;47.60;;
37303;SDS011;23188;51.188;16.374;2024-03-25T22:18:27;57.60;;;35.50;;
37303;SDS011;23188;51.188;16.374;2024-03-25T22:22:30;81.70;;;48.30;;
37303;SDS011;23188;51.188;16.374;2024-03-25T22:26:32;93.80;;;56.40;;
37303;SDS011;23188;51.188;16.374;2024-03-25T22:30:35;123.90;;;74.50;;
37303;SDS011;23188;51.188;16.374;2024-03-25T22:34:38;96.10;;;55.20;;
37303;SDS011;23188;51.188;16.374;2024-03-25T22:38:42;75.30;;;40.90;;
37303;SDS011;23188;51.188;16.374;2024-03-25T22:42:45;66.80;;;37.80;;
37303;SDS011;23188;51.188;16.374;2024-03-25T22:46:48;74.70;;;36.10;;
37303;SDS011;23188;51.188;16.374;2024-03-25T22:50:58;92.20;;;48.10;;
37303;SDS011;23188;51.188;16.374;2024-03-25T22:55:04;84.30;;;44.70;;
37303;SDS011;23188;51.188;16.374;2024-03-25T22:59:07;65.80;;;39.80;;
37303;SDS011;23188;51.188;16.374;2024-03-25T23:03:10;70.20;;;43.30;;
37303;SDS011;23188;51.188;16.374;2024-03-25T23:07:12;87.60;;;47.10;;
37303;SDS011;23188;51.188;16.374;2024-03-25T23:11:16;84.80;;;47.50;;
37303;SDS011;23188;51.188;16.374;2024-03-25T23:15:19;113.10;;;54.00;;
37303;SDS011;23188;51.188;16.374;2024-03-25T23:19:22;72.20;;;40.80;;
37303;SDS011;23188;51.188;16.374;2024-03-25T23:23:25;66.00;;;31.30;;
37303;SDS011;23188;51.188;16.374;2024-03-25T23:27:27;68.60;;;35.60;;
37303;SDS011;23188;51.188;16.374;2024-03-25T23:31:30;97.90;;;53.00;;
37303;SDS011;23188;51.188;16.374;2024-03-25T23:35:33;103.00;;;53.00;;
37303;SDS011;23188;51.188;16.374;2024-03-25T23:39:36;116.50;;;65.00;;
37303;SDS011;23188;51.188;16.374;2024-03-25T23:43:39;69.30;;;37.50;;
37303;SDS011;23188;51.188;16.374;2024-03-25T23:47:41;57.20;;;29.10;;
37303;SDS011;23188;51.188;16.374;2024-03-25T23:51:44;33.50;;;21.30;;